Terminal Aerodrome Forecast
Issued by NWS Memphis, TN

Home | Current Version | Previous Version | Text Only | Print | Product List | Glossary On
Versions: 1 2 3 4 5 6 7 8 9 10 11 12
749
FTUS44 KMEG 241733
TAFMKL
TAF
KMKL 241733Z 2418/2518 19007KT P6SM VCSH FEW045 BKN150
     FM250200 VRB03KT P6SM SCT040 SCT100
     FM251500 19007KT P6SM VCSH SCT050 BKN200=

USA.gov is the U.S. government's official web portal to all federal, state and local government web resources and services.